Peru, IN

6:11 PM EDT on May 20, 2018 (GMT -0400)
Grissom Air Reserve Base

Weather History for KGUS - March, 2013

Change the Weather History Date:

Wednesday, March 6, 2013

  Actual Average Record
Temperature  
Mean Temperature 30 °F -  
Max Temperature 34 °F 39 °F 67 °F (2009)
Min Temperature 26 °F 24 °F -2 °F (2015)
Degree Days  
Heating Degree Days 35    
Moisture  
Dew Point 28 °F    
Average Humidity 94    
Maximum Humidity 100    
Minimum Humidity 78    
Precipitation  
Precipitation 0.00 in - - ()
Sea Level Pressure  
Sea Level Pressure 30.02 in    
Wind  
Wind Speed 17 mph (NNW)    
Max Wind Speed 24 mph    
Max Gust Speed 31 mph    
Visibility 7 miles    
Events Snow    
Averages and records for this station are not official NWS values.
T = Trace of Precipitation, MM = Missing Value Source: NWS Daily Summary

Daily Weather History Graph

Daily Weather History Graph

Search for Another Location

Airport or City:

Astronomy

Mar. 06, 2013 Rise Set
Actual Time 7:10 AM EST 6:41 PM EST
Civil Twilight 6:43 AM EST 7:09 PM EST
Nautical Twilight 6:11 AM EST 7:40 PM EST
Astronomical Twilight 5:39 AM EST 8:12 PM EST
Moon 3:20 AM EST (3/6) 1:21 PM EST (3/6)
Length of Visible Light 12h 26m
Length of Day
11h 31m
Waning Crescent, 30% of the Moon is Illuminated
Mar 6
Waning Crescent
Mar 11
New
Mar 19
First Quarter
Mar 27
Full
Apr 3
Last Quarter

Hourly Weather History & Observations

Time (EST) Temp. Windchill Dew Point Humidity Pressure Visibility Wind Dir Wind Speed Gust Speed Precip Events Conditions
12:08 AM 28.4 °F 16.6 °F 28.4 °F 100% 29.81 in 2.5 mi NNW 16.1 mph - N/A Snow Light Snow
12:17 AM 28.4 °F 16.2 °F 28.4 °F 100% 29.81 in 3.0 mi NNW 17.3 mph - N/A Snow Light Snow
12:25 AM 28.4 °F 16.6 °F 28.4 °F 100% 29.81 in 3.0 mi NNW 16.1 mph - N/A Snow Light Snow
12:30 AM 28.4 °F 15.8 °F 28.4 °F 100% 29.81 in 4.0 mi North 18.4 mph - N/A Snow Light Snow
12:35 AM 28.4 °F 16.2 °F 28.4 °F 100% 29.81 in 4.0 mi North 17.3 mph - N/A Snow Light Snow
12:39 AM 28.4 °F 14.7 °F 28.4 °F 100% 29.81 in 5.0 mi North 21.9 mph - N/A Snow Light Snow
12:40 AM 28.4 °F 14.1 °F 28.4 °F 100% 29.81 in 5.0 mi North 24.2 mph - N/A Snow Light Snow
12:47 AM 28.4 °F 15.1 °F 28.4 °F 100% 29.82 in 6.0 mi North 20.7 mph 31.1 mph N/A Snow Light Snow
12:55 AM 28.8 °F 15.9 °F 27.1 °F 94% 29.82 in 9.0 mi North 19.6 mph - 0.00 in   Overcast
1:02 AM 28.4 °F 15.4 °F 26.6 °F 93% 29.83 in 7.0 mi North 19.6 mph - N/A Snow Light Snow
1:13 AM 28.4 °F 14.4 °F 26.6 °F 93% 29.83 in 6.0 mi North 23.0 mph - N/A Snow Light Snow
1:15 AM 28.4 °F 15.1 °F 26.6 °F 93% 29.84 in 6.0 mi North 20.7 mph 26.5 mph N/A Snow Light Snow
1:17 AM 28.4 °F 15.8 °F 26.6 °F 93% 29.84 in 4.0 mi North 18.4 mph - N/A Snow Light Snow
1:20 AM 28.4 °F 15.4 °F 26.6 °F 93% 29.84 in 4.0 mi North 19.6 mph - N/A Snow Light Snow
1:26 AM 28.4 °F 15.4 °F 26.6 °F 93% 29.84 in 5.0 mi North 19.6 mph - N/A Snow Light Snow
1:27 AM 28.4 °F 15.8 °F 26.6 °F 93% 29.84 in 6.0 mi North 18.4 mph - N/A Snow Light Snow
1:29 AM 28.4 °F 15.8 °F 26.6 °F 93% 29.84 in 6.0 mi North 18.4 mph - N/A Snow Light Snow
1:42 AM 28.4 °F 14.7 °F 26.6 °F 93% 29.85 in 6.0 mi North 21.9 mph 26.5 mph N/A Snow Light Snow
1:46 AM 28.4 °F 15.8 °F 26.6 °F 93% 29.85 in 4.0 mi North 18.4 mph 26.5 mph N/A Snow Light Snow
1:51 AM 28.4 °F 15.8 °F 26.6 °F 93% 29.86 in 3.0 mi North 18.4 mph 26.5 mph N/A Snow Light Snow
1:55 AM 27.7 °F 15.2 °F 26.2 °F 94% 29.86 in 3.0 mi North 17.3 mph - 0.00 in Snow Light Snow
1:57 AM 28.4 °F 16.2 °F 26.6 °F 93% 29.86 in 5.0 mi NNW 17.3 mph - N/A Snow Light Snow
1:58 AM 28.4 °F 16.6 °F 26.6 °F 93% 29.86 in 6.0 mi NNW 16.1 mph - N/A Snow Light Snow
2:16 AM 26.6 °F 13.1 °F 24.8 °F 93% 29.87 in 5.0 mi North 19.6 mph 28.8 mph N/A Snow Light Snow
2:22 AM 26.6 °F 13.8 °F 24.8 °F 93% 29.87 in 5.0 mi NNW 17.3 mph - N/A Snow Light Snow
2:31 AM 26.6 °F 13.8 °F 26.6 °F 100% 29.88 in 5.0 mi NNW 17.3 mph - N/A Snow Light Snow
2:32 AM 26.6 °F 13.8 °F 24.8 °F 93% 29.87 in 4.0 mi NNW 17.3 mph - N/A Snow Light Snow
2:35 AM 26.6 °F 13.8 °F 24.8 °F 93% 29.87 in 4.0 mi NNW 17.3 mph - N/A Snow Light Snow
2:39 AM 26.6 °F 13.1 °F 24.8 °F 93% 29.88 in 4.0 mi North 19.6 mph - N/A Snow Light Snow
2:55 AM 27.1 °F 13.4 °F 25.5 °F 94% 29.88 in 4.0 mi North 20.7 mph - 0.00 in Snow Light Snow
2:57 AM 26.6 °F 13.4 °F 24.8 °F 93% 29.88 in 4.0 mi NNW 18.4 mph - N/A Snow Light Snow
2:59 AM 26.6 °F 13.4 °F 24.8 °F 93% 29.88 in 4.0 mi NNW 18.4 mph - N/A Snow Light Snow
3:03 AM 26.6 °F 12.7 °F 24.8 °F 93% 29.88 in 4.0 mi NNW 20.7 mph - N/A Snow Light Snow
3:08 AM 26.6 °F 13.1 °F 24.8 °F 93% 29.88 in 5.0 mi North 19.6 mph - N/A Snow Light Snow
3:37 AM 26.6 °F 12.4 °F 24.8 °F 93% 29.89 in 7.0 mi NNW 21.9 mph 29.9 mph N/A Snow Light Snow
3:39 AM 26.6 °F 13.1 °F 24.8 °F 93% 29.89 in 7.0 mi NNW 19.6 mph 29.9 mph N/A Snow Light Snow
3:55 AM 27.5 °F 14.6 °F 24.8 °F 90% 29.91 in 10.0 mi NNW 18.4 mph - 0.00 in Snow Light Snow
4:48 AM 26.6 °F 14.3 °F 24.8 °F 93% 29.94 in 10.0 mi NNW 16.1 mph - N/A   Light Freezing Rain
4:55 AM 27.1 °F 15.4 °F 24.4 °F 90% 29.94 in 10.0 mi NNW 15.0 mph 23.0 mph 0.00 in   Light Freezing Rain
5:55 AM 27.1 °F 14.5 °F 24.3 °F 89% 30.00 in 10.0 mi NNW 17.3 mph - 0.00 in   Light Freezing Rain
6:55 AM 27.3 °F 16.1 °F 24.4 °F 89% 30.04 in 10.0 mi NNW 13.8 mph - 0.00 in   Overcast
7:55 AM 27.7 °F 15.2 °F 24.8 °F 89% 30.08 in 10.0 mi NNW 17.3 mph - N/A   Overcast
8:55 AM 28.8 °F 17.0 °F 25.9 °F 89% 30.12 in 10.0 mi North 16.1 mph - N/A   Overcast
9:55 AM 29.8 °F 19.8 °F 26.4 °F 87% 30.14 in 10.0 mi North 12.7 mph - N/A   Overcast
10:30 AM 32.0 °F 22.1 °F 26.6 °F 80% 30.11 in 10.0 mi North 13.8 mph - N/A   Overcast
10:55 AM 30.7 °F 20.4 °F 26.8 °F 85% 30.16 in 10.0 mi North 13.8 mph - N/A   Overcast
11:55 AM 32.2 °F 22.7 °F 27.0 °F 81% 30.18 in 10.0 mi NNW 12.7 mph - N/A   Overcast
12:38 PM 32.0 °F 22.5 °F 28.4 °F 87% 30.19 in 10.0 mi NW 12.7 mph - N/A   Overcast
12:55 PM 32.7 °F 24.5 °F 27.5 °F 81% 30.19 in 10.0 mi NW 10.4 mph - N/A   Overcast
1:55 PM 33.8 °F 25.8 °F 27.9 °F 79% 30.18 in 10.0 mi NW 10.4 mph - N/A   Overcast
2:55 PM 34.3 °F 25.9 °F 28.2 °F 78% 30.18 in 10.0 mi NW 11.5 mph - N/A   Overcast
3:55 PM 32.9 °F 24.7 °F 30.0 °F 89% 30.20 in 10.0 mi WNW 10.4 mph - N/A   Overcast
4:55 PM 32.5 °F 24.8 °F 29.7 °F 89% 30.22 in 10.0 mi NW 9.2 mph - N/A   Overcast
5:55 PM 32.5 °F 24.2 °F 30.0 °F 90% 30.23 in 10.0 mi WNW 10.4 mph - N/A   Overcast
6:21 PM 32.0 °F 24.2 °F 30.2 °F 93% 30.24 in 10.0 mi WNW 9.2 mph - N/A   Overcast
6:55 PM 32.0 °F 24.2 °F 30.7 °F 95% 30.25 in 10.0 mi West 9.2 mph - N/A   Overcast
6:59 PM 32.0 °F 24.2 °F 30.2 °F 93% 30.25 in 10.0 mi West 9.2 mph - N/A Snow Light Snow
7:44 PM 32.0 °F 23.6 °F 32.0 °F 100% 30.23 in 5.0 mi West 10.4 mph - N/A Snow Light Snow
7:55 PM 30.7 °F 22.0 °F 30.6 °F 99% 30.26 in 5.0 mi West 10.4 mph - 0.00 in Snow Light Snow
8:55 PM 30.6 °F 21.2 °F 30.2 °F 99% 30.27 in 10.0 mi West 11.5 mph - 0.00 in Snow Light Snow
9:55 PM 30.4 °F 21.5 °F 29.8 °F 98% 30.27 in 10.0 mi WNW 10.4 mph - 0.00 in   Overcast
10:28 PM 32.0 °F 24.2 °F 30.2 °F 93% 30.24 in 10.0 mi WNW 9.2 mph - N/A   Overcast
10:50 PM 30.2 °F 21.9 °F 30.2 °F 100% 30.27 in 10.0 mi WNW 9.2 mph - N/A   Overcast
10:55 PM 30.4 °F 22.9 °F 29.7 °F 97% 30.27 in 10.0 mi WNW 8.1 mph - 0.00 in   Overcast
11:03 PM 30.2 °F 21.3 °F 30.2 °F 100% 30.27 in 10.0 mi WNW 10.4 mph - N/A   Overcast
11:05 PM 30.2 °F 21.3 °F 30.2 °F 100% 30.27 in 9.0 mi WNW 10.4 mph - N/A   Overcast
11:07 PM 30.2 °F 21.3 °F 30.2 °F 100% 30.27 in 9.0 mi WNW 10.4 mph - N/A   Overcast
11:12 PM 30.2 °F 21.9 °F 30.2 °F 100% 30.27 in 8.0 mi WNW 9.2 mph - N/A   Overcast
11:13 PM 30.2 °F 21.3 °F 30.2 °F 100% 30.27 in 8.0 mi WNW 10.4 mph - N/A   Overcast
11:15 PM 30.2 °F 21.9 °F 30.2 °F 100% 30.27 in 8.0 mi WNW 9.2 mph - N/A   Overcast
11:18 PM 30.2 °F 21.9 °F 30.2 °F 100% 30.27 in 8.0 mi WNW 9.2 mph - N/A   Overcast
11:20 PM 30.2 °F 21.3 °F 30.2 °F 100% 30.27 in 8.0 mi WNW 10.4 mph - N/A   Overcast
11:35 PM 30.2 °F 21.3 °F 30.2 °F 100% 30.28 in 9.0 mi WNW 10.4 mph - N/A   Overcast
11:55 PM 30.2 °F 21.9 °F 29.7 °F 98% 30.27 in 9.0 mi WNW 9.2 mph - 0.00 in   Overcast